createdAt,value
2022-12-18T00:01:21.812Z,100337.22
2022-12-18T00:03:49.758Z,100335.69
2022-12-18T00:06:20.479Z,100337.31
2022-12-18T00:08:48.595Z,100350.22
2022-12-18T00:11:20.847Z,100357.69
2022-12-18T00:13:48.389Z,100359.50
2022-12-18T00:16:21.032Z,100363.22
2022-12-18T00:18:50.091Z,100357.63
2022-12-18T00:21:17.268Z,100364.78
2022-12-18T00:23:47.301Z,100371.69
2022-12-18T00:26:20.361Z,100380.13
2022-12-18T00:28:47.787Z,100385.91
2022-12-18T00:31:20.721Z,100391.50
2022-12-18T00:33:48.110Z,100380.28
2022-12-18T00:36:19.978Z,100377.28
2022-12-18T00:38:48.193Z,100381.25
2022-12-18T00:41:39.121Z,100376.78
2022-12-18T00:44:08.643Z,100378.34
2022-12-18T00:46:35.528Z,100389.22
2022-12-18T00:49:02.926Z,100396.81
2022-12-18T00:51:29.858Z,100398.59
2022-12-18T00:53:57.201Z,100405.72
2022-12-18T00:56:24.614Z,100404.50
2022-12-18T00:58:51.873Z,100403.75
2022-12-18T01:01:19.504Z,100414.31
2022-12-18T01:03:47.714Z,100415.50
2022-12-18T01:06:17.511Z,100433.72
2022-12-18T01:08:45.419Z,100449.34
2022-12-18T01:11:19.577Z,100451.59
2022-12-18T01:13:46.460Z,100457.22
2022-12-18T01:16:14.935Z,100458.63
2022-12-18T01:18:42.034Z,100459.84
2022-12-18T01:21:11.601Z,100460.69
2022-12-18T01:23:39.193Z,100462.88
2022-12-18T01:26:12.010Z,100462.81
2022-12-18T01:28:39.351Z,100465.38
2022-12-18T01:31:29.960Z,100469.84
2022-12-18T01:33:57.382Z,100474.44
2022-12-18T01:36:24.175Z,100467.97
2022-12-18T01:38:52.062Z,100472.13
2022-12-18T01:41:22.602Z,100472.66
2022-12-18T01:43:58.399Z,100459.78
2022-12-18T01:46:26.280Z,100457.03
2022-12-18T01:49:02.364Z,100466.59
2022-12-18T01:51:31.845Z,100458.31
2022-12-18T01:54:00.166Z,100459.59
2022-12-18T01:56:27.101Z,100455.34
2022-12-18T01:59:01.088Z,100447.91
2022-12-18T02:01:30.376Z,100445.69
2022-12-18T02:04:25.938Z,100439.03
2022-12-18T02:07:10.829Z,100439.22
2022-12-18T02:10:00.036Z,100442.41
2022-12-18T02:12:53.082Z,100442.84
2022-12-18T02:15:45.184Z,100438.19
2022-12-18T02:18:19.517Z,100419.94
2022-12-18T02:20:53.895Z,100427.69
2022-12-18T02:23:40.379Z,100425.47
2022-12-18T02:26:13.518Z,100422.81
2022-12-18T02:29:04.898Z,100427.78
2022-12-18T02:31:40.293Z,100429.06
2022-12-18T02:34:09.610Z,100434.44
2022-12-18T02:36:42.897Z,100432.00
2022-12-18T02:39:13.674Z,100425.78
2022-12-18T02:41:49.025Z,100421.72
2022-12-18T02:44:16.220Z,100414.88
2022-12-18T02:46:50.215Z,100422.06
2022-12-18T02:49:35.383Z,100429.91
2022-12-18T02:52:17.056Z,100433.50
2022-12-18T02:55:10.039Z,100430.44
2022-12-18T02:57:44.755Z,100429.91
2022-12-18T03:00:17.244Z,100438.78
2022-12-18T03:02:47.471Z,100449.63
2022-12-18T03:05:36.837Z,100447.81
2022-12-18T03:08:11.556Z,100444.72
2022-12-18T03:10:50.531Z,100439.34
2022-12-18T03:13:21.844Z,100453.53
2022-12-18T03:15:52.350Z,100448.53
2022-12-18T03:18:24.755Z,100445.16
2022-12-18T03:20:56.866Z,100434.25
2022-12-18T03:23:28.929Z,100440.31
2022-12-18T03:26:00.810Z,100457.66
2022-12-18T03:28:33.525Z,100459.38
2022-12-18T03:31:06.748Z,100459.72
2022-12-18T03:33:41.347Z,100460.88
2022-12-18T03:36:08.803Z,100455.56
2022-12-18T03:38:35.923Z,100459.84
2022-12-18T03:41:26.257Z,100463.53
2022-12-18T03:44:45.807Z,100480.88
2022-12-18T03:47:12.528Z,100475.06
2022-12-18T03:50:03.697Z,100498.25
2022-12-18T03:52:39.563Z,100504.41
2022-12-18T03:55:09.740Z,100507.47
2022-12-18T03:57:39.075Z,100516.06
2022-12-18T04:00:18.761Z,100520.47
2022-12-18T04:03:01.886Z,100529.06
2022-12-18T04:05:41.336Z,100522.00
2022-12-18T04:08:08.668Z,100527.63
2022-12-18T04:10:39.041Z,100534.66
2022-12-18T04:13:05.997Z,100534.47
2022-12-18T04:15:36.355Z,100545.31
2022-12-18T04:18:04.909Z,100543.91
2022-12-18T04:20:39.280Z,100548.03
2022-12-18T04:23:06.220Z,100552.78
2022-12-18T04:25:33.660Z,100549.38
2022-12-18T04:28:07.891Z,100561.56
2022-12-18T04:30:36.272Z,100554.94
2022-12-18T04:33:03.137Z,100567.28
2022-12-18T04:35:31.522Z,100569.00
2022-12-18T04:37:58.359Z,100568.31
2022-12-18T04:40:25.258Z,100570.09
2022-12-18T04:42:52.791Z,100564.31
2022-12-18T04:45:19.715Z,100571.84
2022-12-18T04:47:46.564Z,100576.69
2022-12-18T04:50:13.436Z,100587.34
2022-12-18T04:52:40.288Z,100580.13
2022-12-18T04:55:07.397Z,100584.66
2022-12-18T04:57:34.290Z,100581.16
2022-12-18T05:00:01.123Z,100588.00
2022-12-18T05:02:28.200Z,100586.41
2022-12-18T05:04:55.208Z,100588.56
2022-12-18T05:07:22.051Z,100581.78
2022-12-18T05:09:48.866Z,100586.03
2022-12-18T05:12:15.723Z,100595.25
2022-12-18T05:14:42.742Z,100604.38
2022-12-18T05:17:09.607Z,100610.75
2022-12-18T05:19:36.527Z,100605.44
2022-12-18T05:22:03.378Z,100605.44
2022-12-18T05:24:30.408Z,100608.47
2022-12-18T05:26:57.266Z,100620.66
2022-12-18T05:29:24.305Z,100629.03
2022-12-18T05:31:51.219Z,100619.69
2022-12-18T05:34:18.218Z,100635.59
2022-12-18T05:36:45.233Z,100621.66
2022-12-18T05:39:12.089Z,100632.44
2022-12-18T05:41:39.034Z,100639.31
2022-12-18T05:44:06.191Z,100643.94
2022-12-18T05:46:33.378Z,100646.19
2022-12-18T05:49:02.264Z,100657.72
2022-12-18T05:51:29.186Z,100649.91
2022-12-18T05:53:56.166Z,100658.03
2022-12-18T05:56:23.953Z,100664.88
2022-12-18T05:58:55.234Z,100673.84
2022-12-18T06:01:26.429Z,100675.19
2022-12-18T06:03:53.893Z,100680.03
2022-12-18T06:06:24.084Z,100686.28
2022-12-18T06:08:52.013Z,100682.56
2022-12-18T06:11:22.603Z,100691.66
2022-12-18T06:13:58.886Z,100701.31
2022-12-18T06:16:27.316Z,100697.72
2022-12-18T06:18:54.869Z,100707.44
2022-12-18T06:21:21.740Z,100715.78
2022-12-18T06:23:48.679Z,100719.28
2022-12-18T06:26:16.055Z,100713.41
2022-12-18T06:28:42.936Z,100724.97
2022-12-18T06:31:10.867Z,100736.31
2022-12-18T06:33:38.967Z,100725.59
2022-12-18T06:36:10.372Z,100738.69
2022-12-18T06:38:40.201Z,100747.47
2022-12-18T06:41:12.593Z,100747.84
2022-12-18T06:43:40.048Z,100758.25
2022-12-18T06:46:07.471Z,100750.97
2022-12-18T06:48:34.765Z,100760.50
2022-12-18T06:51:01.604Z,100770.41
2022-12-18T06:53:28.987Z,100766.06
2022-12-18T06:56:10.148Z,100773.72
2022-12-18T06:58:39.407Z,100789.34
2022-12-18T07:01:09.088Z,100776.25
2022-12-18T07:03:36.223Z,100784.38
2022-12-18T07:06:03.428Z,100788.53
2022-12-18T07:08:31.947Z,100806.91
2022-12-18T07:10:59.375Z,100808.72
2022-12-18T07:13:26.452Z,100809.16
2022-12-18T07:15:53.405Z,100814.38
2022-12-18T07:18:20.345Z,100818.16
2022-12-18T07:20:47.272Z,100817.16
2022-12-18T07:23:14.948Z,100820.81
2022-12-18T07:25:41.880Z,100822.34
2022-12-18T07:28:11.690Z,100822.22
2022-12-18T07:30:42.541Z,100830.16
2022-12-18T07:33:09.478Z,100838.00
2022-12-18T07:35:37.412Z,100839.13
2022-12-18T07:38:04.582Z,100841.41
2022-12-18T07:40:31.492Z,100847.13
2022-12-18T07:42:58.332Z,100858.28
2022-12-18T07:45:25.288Z,100860.22
2022-12-18T07:47:52.312Z,100874.22
2022-12-18T07:50:19.249Z,100871.13
2022-12-18T07:52:46.125Z,100881.28
2022-12-18T07:55:16.511Z,100883.94
2022-12-18T07:57:52.650Z,100890.75
2022-12-18T08:00:22.527Z,100889.69
2022-12-18T08:02:49.503Z,100905.16
2022-12-18T08:05:16.632Z,100909.69
2022-12-18T08:07:43.579Z,100906.72
2022-12-18T08:10:10.627Z,100908.69
2022-12-18T08:12:37.460Z,100909.88
2022-12-18T08:15:04.728Z,100918.44
2022-12-18T08:17:31.980Z,100918.34
2022-12-18T08:19:58.822Z,100920.56
2022-12-18T08:22:25.835Z,100925.69
2022-12-18T08:24:52.652Z,100924.22
2022-12-18T08:27:34.922Z,100933.09
2022-12-18T08:30:02.566Z,100930.63
2022-12-18T08:32:29.528Z,100932.25
2022-12-18T08:34:56.509Z,100945.63
2022-12-18T08:37:23.387Z,100944.50
2022-12-18T08:39:50.364Z,100941.50
2022-12-18T08:42:36.057Z,100951.09
2022-12-18T08:45:03.842Z,100948.16
2022-12-18T08:47:30.761Z,100946.78
2022-12-18T08:49:57.594Z,100945.34
2022-12-18T08:52:24.486Z,100947.00
2022-12-18T08:54:51.494Z,100949.06
2022-12-18T08:57:18.424Z,100949.91
2022-12-18T08:59:45.244Z,100950.94
2022-12-18T09:02:12.667Z,100951.63
2022-12-18T09:04:41.052Z,100949.91
2022-12-18T09:07:08.277Z,100944.19
2022-12-18T09:09:35.205Z,100950.78
2022-12-18T09:12:02.084Z,100955.97
2022-12-18T09:14:28.882Z,100957.31
2022-12-18T09:16:56.090Z,100948.16
2022-12-18T09:19:22.947Z,100948.22
2022-12-18T09:21:49.796Z,100953.13
2022-12-18T09:24:17.186Z,100947.00
2022-12-18T09:26:46.979Z,100954.31
2022-12-18T09:29:15.658Z,100939.72
2022-12-18T09:31:43.822Z,100947.34
2022-12-18T09:34:10.778Z,100945.88
2022-12-18T09:36:37.715Z,100946.56
2022-12-18T09:39:08.575Z,100947.84
2022-12-18T09:41:42.160Z,100951.78
2022-12-18T09:44:25.109Z,100952.91
2022-12-18T09:47:00.936Z,100947.66
2022-12-18T09:49:31.715Z,100959.41
2022-12-18T09:52:17.033Z,100957.84
2022-12-18T09:54:49.227Z,100962.03
2022-12-18T09:57:22.832Z,100962.78
2022-12-18T10:00:00.316Z,100958.97
2022-12-18T10:02:31.156Z,100964.00
2022-12-18T10:05:18.113Z,100963.16
2022-12-18T10:08:03.580Z,100971.69
2022-12-18T10:10:41.284Z,100959.81
2022-12-18T10:13:32.714Z,100975.50
2022-12-18T10:16:20.730Z,100972.13
2022-12-18T10:19:20.303Z,100973.44
2022-12-18T10:22:04.408Z,100965.75
2022-12-18T10:24:37.499Z,100970.16
2022-12-18T10:27:26.717Z,100950.16
2022-12-18T10:29:55.132Z,100966.16
2022-12-18T10:32:27.775Z,100958.28
2022-12-18T10:35:00.420Z,100960.19
2022-12-18T10:37:30.988Z,100956.88
2022-12-18T10:40:22.333Z,100965.34
2022-12-18T10:43:13.299Z,100953.06
2022-12-18T10:45:40.943Z,100953.44
2022-12-18T10:48:23.624Z,100953.78
2022-12-18T10:51:10.745Z,100954.97
2022-12-18T10:53:43.002Z,100962.66
2022-12-18T10:56:10.526Z,100957.31
2022-12-18T10:58:39.698Z,100961.91
2022-12-18T11:01:14.314Z,100971.91
2022-12-18T11:04:03.314Z,100970.53
2022-12-18T11:06:30.720Z,100974.56
2022-12-18T11:09:12.260Z,100972.72
2022-12-18T11:11:41.415Z,100967.69
2022-12-18T11:14:23.059Z,100968.16
2022-12-18T11:19:40.970Z,100980.53
2022-12-18T11:22:29.257Z,100984.41
2022-12-18T11:25:31.261Z,100973.44
2022-12-18T11:28:03.869Z,100981.16
2022-12-18T11:30:33.720Z,100980.56
2022-12-18T11:33:10.627Z,100983.31
2022-12-18T11:35:46.682Z,100985.06
2022-12-18T11:38:24.399Z,100982.94
2022-12-18T11:41:46.048Z,100985.91
2022-12-18T11:44:20.578Z,100997.84
2022-12-18T11:46:54.712Z,100999.03
2022-12-18T11:49:28.014Z,101006.47
2022-12-18T11:52:04.069Z,101016.69
2022-12-18T11:54:31.061Z,101013.47
2022-12-18T11:57:18.152Z,101009.56
2022-12-18T12:00:02.496Z,101014.59
2022-12-18T12:03:06.774Z,101007.28
2022-12-18T12:06:02.700Z,101008.34
2022-12-18T12:08:54.847Z,101014.59
2022-12-18T12:11:44.819Z,101015.31
2022-12-18T12:14:26.399Z,101011.97
2022-12-18T12:17:08.134Z,101021.56
2022-12-18T12:19:34.987Z,101022.56
2022-12-18T12:22:19.387Z,101011.59
2022-12-18T12:24:59.642Z,101016.19
2022-12-18T12:27:41.052Z,101018.22
2022-12-18T12:30:10.357Z,101021.09
2022-12-18T12:33:07.090Z,101031.13
2022-12-18T12:35:52.404Z,101028.84
2022-12-18T12:38:32.177Z,101025.38
2022-12-18T12:41:29.345Z,101025.59
2022-12-18T12:44:01.092Z,101036.16
2022-12-18T12:46:31.546Z,101039.81
2022-12-18T12:49:03.243Z,101045.84
2022-12-18T12:51:35.072Z,101050.38
2022-12-18T12:54:04.851Z,101051.78
2022-12-18T12:56:53.732Z,101060.25
2022-12-18T12:59:24.854Z,101063.34
2022-12-18T13:02:06.418Z,101065.19
2022-12-18T13:04:39.557Z,101076.72
2022-12-18T13:07:11.972Z,101084.41
2022-12-18T13:13:44.928Z,101080.84
2022-12-18T13:13:47.039Z,101080.41
2022-12-18T13:16:06.903Z,101078.84
2022-12-18T13:18:35.281Z,101083.06
2022-12-18T13:21:05.261Z,101092.22
2022-12-18T13:23:34.291Z,101090.28
2022-12-18T13:26:28.182Z,101097.69
2022-12-18T13:28:57.900Z,101098.19
2022-12-18T13:31:31.050Z,101109.91
2022-12-18T13:37:43.483Z,101099.56
2022-12-18T13:40:42.330Z,101110.66
2022-12-18T13:43:21.665Z,101121.66
2022-12-18T13:46:02.291Z,101127.13
2022-12-18T13:48:32.872Z,101134.63
2022-12-18T13:51:08.954Z,101136.91
2022-12-18T13:53:50.105Z,101146.91
2022-12-18T13:56:18.281Z,101159.81
2022-12-18T13:58:45.520Z,101164.53
2022-12-18T14:01:25.358Z,101161.16
2022-12-18T14:04:06.219Z,101169.31
2022-12-18T14:06:33.100Z,101166.00
2022-12-18T14:09:00.703Z,101164.59
2022-12-18T14:11:27.874Z,101164.78
2022-12-18T14:13:56.291Z,101163.81
2022-12-18T14:16:23.487Z,101163.63
2022-12-18T14:18:58.148Z,101169.75
2022-12-18T14:21:36.216Z,101168.69
2022-12-18T14:24:19.685Z,101170.16
2022-12-18T14:26:48.391Z,101171.97
2022-12-18T14:29:27.518Z,101177.44
2022-12-18T14:32:17.550Z,101182.91
2022-12-18T14:34:50.459Z,101179.88
2022-12-18T14:37:27.272Z,101184.38
2022-12-18T14:40:11.240Z,101194.50
2022-12-18T14:42:38.468Z,101198.41
2022-12-18T14:45:39.134Z,101199.78
2022-12-18T14:48:36.129Z,101205.34
2022-12-18T14:51:06.600Z,101199.78
2022-12-18T14:53:36.694Z,101202.97
2022-12-18T14:56:13.412Z,101208.78
2022-12-18T14:58:40.627Z,101216.50
2022-12-18T15:01:08.066Z,101212.59
2022-12-18T15:03:44.878Z,101221.50
2022-12-18T15:06:31.284Z,101228.31
2022-12-18T15:08:59.883Z,101230.00
2022-12-18T15:11:28.140Z,101232.25
2022-12-18T15:13:54.964Z,101234.22
2022-12-18T15:16:22.109Z,101232.44
2022-12-18T15:18:49.490Z,101240.66
2022-12-18T15:21:21.719Z,101249.47
2022-12-18T15:23:52.041Z,101252.72
2022-12-18T15:26:21.666Z,101245.75
2022-12-18T15:28:51.260Z,101244.22
2022-12-18T15:31:18.332Z,101254.13
2022-12-18T15:34:20.284Z,101254.06
2022-12-18T15:36:47.436Z,101266.38
2022-12-18T15:39:14.533Z,101272.91
2022-12-18T15:41:41.755Z,101267.91
2022-12-18T15:44:24.392Z,101281.56
2022-12-18T15:46:51.427Z,101286.75
2022-12-18T15:49:18.236Z,101286.59
2022-12-18T15:51:45.780Z,101283.19
2022-12-18T15:54:17.198Z,101287.03
2022-12-18T15:57:02.510Z,101299.63
2022-12-18T15:59:29.612Z,101306.69
2022-12-18T16:01:57.771Z,101308.63
2022-12-18T16:04:25.761Z,101311.81
2022-12-18T16:07:14.452Z,101315.25
2022-12-18T16:09:43.051Z,101311.78
2022-12-18T16:12:20.371Z,101307.78
2022-12-18T16:14:47.709Z,101300.84
2022-12-18T16:17:15.622Z,101310.84
2022-12-18T16:19:43.639Z,101324.59
2022-12-18T16:22:24.548Z,101330.19
2022-12-18T16:24:53.115Z,101340.88
2022-12-18T16:27:20.999Z,101345.59
2022-12-18T16:29:48.036Z,101340.94
2022-12-18T16:32:17.279Z,101337.47
2022-12-18T16:34:44.773Z,101341.84
2022-12-18T16:37:13.882Z,101343.56
2022-12-18T16:39:41.453Z,101346.09
2022-12-18T16:42:20.480Z,101350.03
2022-12-18T16:44:49.119Z,101351.66
2022-12-18T16:47:16.642Z,101352.47
2022-12-18T16:49:46.105Z,101363.44
2022-12-18T16:52:13.979Z,101362.75
2022-12-18T16:54:40.820Z,101361.97
2022-12-18T16:57:07.687Z,101370.97
2022-12-18T16:59:34.598Z,101370.06
2022-12-18T17:02:02.132Z,101380.09
2022-12-18T17:04:29.094Z,101383.13
2022-12-18T17:06:55.909Z,101383.75
2022-12-18T17:09:26.126Z,101390.84
2022-12-18T17:11:54.055Z,101393.91
2022-12-18T17:14:23.863Z,101396.19
2022-12-18T17:17:19.115Z,101394.78
2022-12-18T17:19:38.979Z,101394.56
2022-12-18T17:22:05.951Z,101403.31
2022-12-18T17:24:35.105Z,101400.69
2022-12-18T17:27:03.640Z,101400.38
2022-12-18T17:29:30.992Z,101402.56
2022-12-18T17:31:58.055Z,101404.53
2022-12-18T17:34:27.460Z,101407.50
2022-12-18T17:36:54.591Z,101404.78
2022-12-18T17:39:23.032Z,101403.91
2022-12-18T17:41:50.503Z,101409.16
2022-12-18T17:44:18.475Z,101407.94
2022-12-18T17:46:46.345Z,101420.16
2022-12-18T17:49:15.908Z,101414.44
2022-12-18T17:51:43.174Z,101415.03
2022-12-18T17:54:11.110Z,101411.53
2022-12-18T17:56:39.065Z,101434.53
2022-12-18T17:59:07.307Z,101442.28
2022-12-18T18:01:38.556Z,101450.25
2022-12-18T18:04:09.510Z,101457.25
2022-12-18T18:06:38.697Z,101445.72
2022-12-18T18:09:12.256Z,101448.94
2022-12-18T18:12:03.007Z,101454.34
2022-12-18T18:14:30.378Z,101456.78
2022-12-18T18:17:00.783Z,101463.72
2022-12-18T18:19:33.165Z,101466.72
2022-12-18T18:22:01.625Z,101469.50
2022-12-18T18:24:30.300Z,101470.53
2022-12-18T18:26:59.674Z,101467.00
2022-12-18T18:29:28.625Z,101482.34
2022-12-18T18:31:56.432Z,101484.88
2022-12-18T18:34:26.766Z,101490.31
2022-12-18T18:36:54.023Z,101493.56
2022-12-18T18:39:21.233Z,101482.34
2022-12-18T18:41:48.804Z,101489.22
2022-12-18T18:44:19.082Z,101498.13
2022-12-18T18:46:46.868Z,101497.75
2022-12-18T18:49:15.013Z,101507.00
2022-12-18T18:51:42.790Z,101514.16
2022-12-18T18:54:10.328Z,101521.31
2022-12-18T18:57:03.932Z,101523.69
2022-12-18T18:59:31.349Z,101525.53
2022-12-18T19:02:00.775Z,101536.25
2022-12-18T19:04:35.258Z,101530.53
2022-12-18T19:07:04.426Z,101539.97
2022-12-18T19:09:31.510Z,101544.41
2022-12-18T19:12:16.968Z,101542.50
2022-12-18T19:14:44.289Z,101543.50
2022-12-18T19:17:11.131Z,101544.53
2022-12-18T19:19:38.424Z,101547.88
2022-12-18T19:22:05.373Z,101549.00
2022-12-18T19:24:32.253Z,101554.44
2022-12-18T19:26:59.069Z,101556.81
2022-12-18T19:29:25.991Z,101558.91
2022-12-18T19:31:52.999Z,101567.78
2022-12-18T19:34:20.066Z,101569.47
2022-12-18T19:36:46.977Z,101576.88
2022-12-18T19:39:17.694Z,101581.13
2022-12-18T19:41:46.401Z,101575.53
2022-12-18T19:44:15.784Z,101586.81
2022-12-18T19:46:43.261Z,101575.41
2022-12-18T19:49:11.614Z,101584.00
2022-12-18T19:51:46.953Z,101588.50
2022-12-18T19:54:16.957Z,101585.72
2022-12-18T19:56:45.158Z,101594.09
2022-12-18T19:59:12.131Z,101590.63
2022-12-18T20:01:39.125Z,101593.50
2022-12-18T20:04:06.341Z,101592.47
2022-12-18T20:07:01.723Z,101590.63
2022-12-18T20:09:28.695Z,101587.06
2022-12-18T20:11:55.626Z,101598.78
2022-12-18T20:14:23.874Z,101592.38
2022-12-18T20:16:52.603Z,101595.91
2022-12-18T20:19:20.927Z,101594.53
2022-12-18T20:21:48.392Z,101595.69
2022-12-18T20:24:15.396Z,101594.13
2022-12-18T20:26:42.330Z,101607.84
2022-12-18T20:29:09.238Z,101613.63
2022-12-18T20:31:36.343Z,101615.38
2022-12-18T20:34:04.885Z,101617.31
2022-12-18T20:36:34.317Z,101623.28
2022-12-18T20:39:05.379Z,101620.78
2022-12-18T20:41:38.448Z,101614.78
2022-12-18T20:44:21.904Z,101618.13
2022-12-18T20:46:56.503Z,101622.31
2022-12-18T20:49:24.925Z,101627.19
2022-12-18T20:51:54.084Z,101620.03
2022-12-18T20:54:22.817Z,101630.19
2022-12-18T20:56:50.285Z,101634.84
2022-12-18T20:59:18.641Z,101644.44
2022-12-18T21:01:48.285Z,101644.19
2022-12-18T21:04:18.007Z,101644.72
2022-12-18T21:06:49.405Z,101647.22
2022-12-18T21:09:18.605Z,101644.50
2022-12-18T21:12:03.867Z,101644.44
2022-12-18T21:14:33.943Z,101647.16
2022-12-18T21:17:02.128Z,101658.44
2022-12-18T21:19:29.910Z,101649.97
2022-12-18T21:21:57.801Z,101646.28
2022-12-18T21:24:25.626Z,101646.09
2022-12-18T21:26:54.137Z,101643.19
2022-12-18T21:29:25.841Z,101645.50
2022-12-18T21:31:54.733Z,101647.78
2022-12-18T21:34:26.298Z,101646.31
2022-12-18T21:36:55.148Z,101641.34
2022-12-18T21:39:22.914Z,101656.88
2022-12-18T21:42:09.286Z,101647.16
2022-12-18T21:44:39.592Z,101646.25
2022-12-18T21:47:22.163Z,101647.72
2022-12-18T21:49:51.450Z,101650.28
2022-12-18T21:52:18.784Z,101653.94
2022-12-18T21:54:45.733Z,101652.19
2022-12-18T21:57:15.814Z,101654.66
2022-12-18T21:59:45.981Z,101647.78
2022-12-18T22:02:12.989Z,101657.84
2022-12-18T22:04:40.237Z,101658.75
2022-12-18T22:07:07.557Z,101659.72
2022-12-18T22:09:35.049Z,101659.84
2022-12-18T22:12:02.110Z,101667.75
2022-12-18T22:14:29.386Z,101659.75
2022-12-18T22:16:57.491Z,101646.94
2022-12-18T22:19:26.025Z,101652.63
2022-12-18T22:21:53.816Z,101649.78
2022-12-18T22:24:23.942Z,101651.03
2022-12-18T22:26:53.108Z,101656.81
2022-12-18T22:29:42.914Z,101655.91
2022-12-18T22:32:13.131Z,101661.72
2022-12-18T22:34:42.205Z,101653.28
2022-12-18T22:37:11.594Z,101657.09
2022-12-18T22:39:38.618Z,101659.94
2022-12-18T22:42:05.876Z,101651.44
2022-12-18T22:44:32.775Z,101664.47
2022-12-18T22:47:07.006Z,101650.06
2022-12-18T22:49:34.885Z,101659.06
2022-12-18T22:52:03.020Z,101649.50
2022-12-18T22:54:29.893Z,101657.22
2022-12-18T22:56:57.152Z,101653.09
2022-12-18T22:59:24.391Z,101661.09
2022-12-18T23:01:58.393Z,101663.84
2022-12-18T23:04:28.802Z,101665.78
2022-12-18T23:07:07.537Z,101669.03
2022-12-18T23:09:35.042Z,101671.13
2022-12-18T23:12:02.033Z,101677.38
2022-12-18T23:14:29.665Z,101673.69
2022-12-18T23:16:56.804Z,101679.88
2022-12-18T23:19:24.178Z,101681.09
2022-12-18T23:21:51.833Z,101686.16
2022-12-18T23:24:21.350Z,101686.94
2022-12-18T23:26:48.159Z,101680.88
2022-12-18T23:29:14.972Z,101668.28
2022-12-18T23:31:41.863Z,101678.09
2022-12-18T23:34:11.891Z,101675.19
2022-12-18T23:36:46.264Z,101677.81
2022-12-18T23:39:17.460Z,101681.88
2022-12-18T23:41:59.720Z,101692.88
2022-12-18T23:44:26.663Z,101686.72
2022-12-18T23:46:54.690Z,101700.56
2022-12-18T23:49:21.665Z,101706.72
2022-12-18T23:51:48.700Z,101702.59
2022-12-18T23:54:15.663Z,101714.84
2022-12-18T23:56:42.502Z,101729.63
2022-12-18T23:59:09.619Z,101728.88
